Data for 07/08/2008

Time Sea-Level Adjusted Pressure Absolute Pressure Temperature Relative Humidity Dew Point   
(mb) (inHg) (mb) (inHg) (C) (F) (%) (C) (F)
00:05 1020 30.12 849 25.07 16.3 61.4 45 4.5 40
00:10 1020 30.12 849 25.07 16.3 61.4 45 4.6 40.3
00:15 1020 30.12 849 25.07 16.3 61.4 45 4.5 40.1
00:20 1020 30.12 849 25.07 16.3 61.3 44 4.1 39.4
00:25 1020 30.12 849 25.07 16.3 61.3 45 4.5 40.1
00:30 1020 30.12 849 25.07 16.1 61 46 4.5 40
00:35 1020 30.12 849 25.07 16 60.8 47 4.7 40.5
00:40 1020 30.12 849 25.07 15.8 60.5 47 4.7 40.5
00:45 1020 30.12 850 25.1 15.8 60.4 47 4.7 40.4
00:50 1020 30.12 850 25.1 15.7 60.2 49 5 41
00:55 1020 30.12 850 25.1 15.4 59.7 49 4.8 40.6
01:00 1020 30.12 850 25.1 15.3 59.5 48 4.4 39.8
01:05 1020 30.12 850 25.1 15.4 59.8 47 4.2 39.5
01:10 1020 30.12 850 25.1 15.5 60 49 4.9 40.8
01:15 1021 30.15 850 25.1 15.4 59.8 49 4.8 40.7
01:20 1021 30.15 850 25.1 14.8 58.7 51 4.9 40.8
01:25 1021 30.15 850 25.1 14.8 58.6 50 4.6 40.2
01:30 1021 30.15 850 25.1 14.7 58.5 50 4.6 40.2
01:35 1021 30.15 850 25.1 14.7 58.5 50 4.6 40.2
01:40 1021 30.15 850 25.1 14.6 58.2 51 4.7 40.4
01:45 1021 30.15 850 25.1 14.4 57.8 54 5.2 41.3
01:50 1021 30.15 850 25.1 14 57.1 55 5.1 41.2
01:55 1021 30.15 850 25.1 13.7 56.7 55 4.8 40.7
02:00 1021 30.15 850 25.1 13.6 56.4 56 5 40.9
02:05 1021 30.15 850 25.1 13.4 56.1 57 5 41
02:10 1021 30.15 850 25.1 13.3 55.9 57 5 41
02:15 1021 30.15 850 25.1 13.3 55.9 56 4.8 40.6
02:20 1021 30.15 850 25.1 13.4 56 54 4.4 39.9
02:25 1021 30.15 850 25.1 13.7 56.6 54 4.5 40
02:30 1021 30.15 850 25.1 13.9 56.9 53 4.4 39.9
02:35 1021 30.15 850 25.1 13.9 57.1 52 4.4 39.9
02:40 1021 30.15 850 25.1 14 57.1 52 4.3 39.7
02:45 1021 30.15 850 25.1 14.1 57.4 51 4.3 39.8
02:50 1021 30.15 850 25.1 13.8 56.8 53 4.6 40.2
02:55 1021 30.15 850 25.1 13.4 56.1 54 4.4 39.9
03:00 1021 30.15 850 25.1 13.3 55.9 54 4.3 39.8
03:05 1021 30.15 850 25.1 13.1 55.6 55 4.4 39.9
03:10 1021 30.15 850 25.1 13.1 55.5 54 4.1 39.4
03:15 1021 30.15 850 25.1 13.3 55.9 54 4.2 39.5
03:20 1021 30.15 850 25.1 13.3 55.9 55 4.4 39.9
03:25 1021 30.15 850 25.1 13.1 55.5 56 4.5 40.1
03:30 1021 30.15 850 25.1 12.8 55 58 4.7 40.4
03:35 1021 30.15 850 25.1 12.5 54.4 58 4.6 40.3
03:40 1021 30.15 851 25.13 12.4 54.3 59 4.7 40.4
03:45 1021 30.15 851 25.13 12.3 54.1 59 4.6 40.4
03:50 1021 30.15 851 25.13 12.3 54.1 57 4 39.3
03:55 1022 30.18 851 25.13 12.8 55 55 4 39.2
04:00 1022 30.18 851 25.13 12.7 54.9 56 4.2 39.5
04:05 1022 30.18 851 25.13 12.8 55 56 4.2 39.5
04:10 1022 30.18 851 25.13 12.8 55 57 4.5 40.1
04:15 1022 30.18 851 25.13 12.4 54.4 58 4.4 39.9
04:20 1022 30.18 851 25.13 12.3 54.2 59 4.6 40.2
04:25 1022 30.18 851 25.13 12.2 54 58 4.3 39.7
04:30 1022 30.18 851 25.13 12.2 54 58 4.3 39.8
04:35 1022 30.18 851 25.13 12.2 53.9 58 4.2 39.5
04:40 1022 30.18 851 25.13 12.5 54.5 53 3.1 37.7
04:45 1022 30.18 851 25.13 13.1 55.6 54 4.2 39.6
04:50 1022 30.18 851 25.13 12.7 54.9 56 4.3 39.7
04:55 1022 30.18 851 25.13 12.7 54.8 53 3.5 38.3
05:00 1022 30.18 851 25.13 12.7 54.8 55 3.8 38.9
05:05 1022 30.18 851 25.13 12.5 54.5 56 4.1 39.3
05:10 1022 30.18 851 25.13 12.2 54 59 4.4 40
05:15 1022 30.18 851 25.13 11.6 53 60 4.3 39.7
05:20 1022 30.18 851 25.13 11.5 52.6 60 4.1 39.4
05:25 1022 30.18 851 25.13 11.5 52.6 60 4.1 39.3
05:30 1022 30.18 851 25.13 12 53.6 54 3.1 37.7
05:35 1022 30.18 851 25.13 12.5 54.4 54 3.4 38.2
05:40 1022 30.18 851 25.13 12.6 54.6 56 4 39.2
05:45 1022 30.18 851 25.13 12.5 54.4 55 3.7 38.6
05:50 1022 30.18 851 25.13 12.3 54.2 57 4.2 39.6
05:55 1022 30.18 852 25.16 12.4 54.2 57 4.1 39.3
06:00 1022 30.18 852 25.16 11.8 53.3 62 4.7 40.5
06:05 1022 30.18 852 25.16 11 51.9 64 4.4 40
06:10 1022 30.18 852 25.16 10.7 51.3 64 4.2 39.5
06:15 1022 30.18 852 25.16 10.8 51.4 63 4.1 39.5
06:20 1022 30.18 852 25.16 11.1 51.9 61 3.8 38.9
06:25 1022 30.18 852 25.16 11.3 52.3 60 3.8 38.8
06:30 1022 30.18 852 25.16 11.6 52.8 58 3.7 38.7
06:35 1023 30.21 852 25.16 11.8 53.2 58 3.8 38.9
06:40 1022 30.18 852 25.16 11.8 53.3 58 4 39.2
06:45 1023 30.21 852 25.16 11.9 53.3 59 4.2 39.5
06:50 1023 30.21 852 25.16 11.9 53.5 59 4.1 39.4
06:55 1023 30.21 852 25.16 12.1 53.7 58 4.1 39.4
07:00 1023 30.21 852 25.16 12.2 54 58 4.2 39.6
07:05 1023 30.21 852 25.16 12.4 54.4 58 4.4 39.9
07:10 1023 30.21 852 25.16 12.7 54.9 57 4.5 40.1
07:15 1023 30.21 852 25.16 13.1 55.6 55 4.3 39.7
07:20 1023 30.21 852 25.16 13.5 56.3 54 4.5 40.1
07:25 1023 30.21 852 25.16 14 57.2 53 4.6 40.3
07:30 1023 30.21 852 25.16 13.9 57.1 53 4.5 40.2
07:35 1023 30.21 852 25.16 14.5 58.2 51 4.7 40.5
07:40 1023 30.21 852 25.16 14.8 58.6 52 5 41
07:45 1023 30.21 852 25.16 15 58.9 49 4.5 40.1
07:50 1023 30.21 852 25.16 15.3 59.6 50 5.2 41.3
07:55 1023 30.21 852 25.16 16.3 61.3 49 5.6 42
08:00 1023 30.21 852 25.16 16.5 61.7 48 5.7 42.3
08:05 1023 30.21 852 25.16 16.7 62.1 48 5.8 42.5
08:10 1023 30.21 852 25.16 16.9 62.5 47 5.7 42.2
08:15 1023 30.21 852 25.16 17.5 63.5 44 5.2 41.3
08:20 1023 30.21 852 25.16 18 64.4 45 6.1 43
08:25 1023 30.21 852 25.16 18.2 64.8 40 4.5 40.2
08:30 1023 30.21 852 25.16 18.6 65.4 41 5.2 41.4
08:35 1023 30.21 852 25.16 18.5 65.4 41 5.2 41.3
08:40 1023 30.21 852 25.16 19 66.2 37 4.3 39.7
08:45 1023 30.21 852 25.16 19.1 66.4 38 4.8 40.6
08:50 1023 30.21 852 25.16 19.4 66.9 36 4.1 39.3
08:55 1023 30.21 852 25.16 19.1 66.3 36 3.9 39
09:00 1023 30.21 852 25.16 19.2 66.5 36 3.8 38.8
09:05 1023 30.21 852 25.16 19.6 67.3 35 4 39.1
09:10 1023 30.21 852 25.16 19 66.2 36 3.9 39
09:15 1023 30.21 852 25.16 19.3 66.7 36 4.2 39.5
09:20 1023 30.21 852 25.16 19.9 67.9 36 4.5 40.1
09:25 1023 30.21 852 25.16 20 68 36 4.7 40.5
09:30 1023 30.21 852 25.16 19.7 67.5 38 5.3 41.5
09:35 1023 30.21 852 25.16 19.5 67.1 38 5.1 41.2
09:40 1023 30.21 852 25.16 20 68 35 4.3 39.7
09:45 1023 30.21 852 25.16 19.9 67.8 36 4.6 40.3
09:50 1023 30.21 852 25.16 20 67.9 36 4.6 40.3
09:55 1023 30.21 852 25.16 19.7 67.5 36 4.3 39.8
10:00 1023 30.21 852 25.16 20.1 68.1 35 4.4 40
10:05 1023 30.21 852 25.16 19.8 67.7 38 5.2 41.4
10:10 1023 30.21 852 25.16 20.4 68.8 36 5.1 41.2
10:15 1023 30.21 852 25.16 20.7 69.3 34 4.6 40.2
10:20 1023 30.21 852 25.16 20.4 68.6 34 4.2 39.5
10:25 1023 30.21 852 25.16 20.8 69.4 32 3.5 38.3
10:30 1023 30.21 852 25.16 20.8 69.5 33 4.2 39.6
10:35 1023 30.21 852 25.16 21 69.7 33 4.2 39.6
10:40 1023 30.21 852 25.16 21.4 70.4 32 4.2 39.6
10:45 1023 30.21 852 25.16 21.6 70.8 33 4.6 40.3
10:50 1023 30.21 852 25.16 21.3 70.4 32 4 39.2
10:55 1023 30.21 852 25.16 21.7 71.1 32 4.3 39.7
11:00 1023 30.21 852 25.16 22.1 71.8 32 4.7 40.5
11:05 1023 30.21 852 25.16 21.9 71.4 33 4.9 40.9
11:10 1023 30.21 852 25.16 21.4 70.5 32 4 39.2
11:15 1023 30.21 852 25.16 21.7 71.1 30 3.8 38.8
11:20 1023 30.21 852 25.16 22.4 72.3 30 4.3 39.8
11:25 1023 30.21 852 25.16 22.3 72.1 30 4.2 39.5
11:30 1023 30.21 852 25.16 22.2 72 30 4 39.2
11:35 1023 30.21 852 25.16 22.3 72.1 29 3.8 38.8
11:40 1023 30.21 852 25.16 22.2 72 30 3.9 39
11:45 1023 30.21 852 25.16 22.6 72.6 28 3.3 37.9
11:50 1023 30.21 852 25.16 22.3 72.2 30 4 39.3
11:55 1023 30.21 852 25.16 22.3 72.1 30 3.9 39
12:00 1023 30.21 852 25.16 22.1 71.8 28 3 37.4
12:05 1023 30.21 852 25.16 22.4 72.4 26 2.2 35.9
12:10 1023 30.21 852 25.16 22.7 72.9 26 2.3 36.2
12:15 1023 30.21 852 25.16 22.9 73.2 26 2.5 36.4
12:20 1023 30.21 852 25.16 23 73.4 27 3.1 37.6
12:25 1023 30.21 852 25.16 23.1 73.5 27 3.3 37.9
12:30 1023 30.21 852 25.16 22.9 73.2 28 3.4 38.1
12:35 1023 30.21 852 25.16 22.5 72.5 27 2.8 37
12:40 1023 30.21 852 25.16 23 73.3 27 3 37.5
12:45 1023 30.21 852 25.16 23.6 74.4 27 3.7 38.7
12:50 1023 30.21 852 25.16 23.5 74.2 26 3.1 37.5
12:55 1023 30.21 852 25.16 23.7 74.6 26 3.5 38.2
13:00 1023 30.21 852 25.16 24.1 75.3 26 3.6 38.4
13:05 1022 30.18 852 25.16 23.3 74 27 3.4 38.2
13:10 1022 30.18 852 25.16 23.1 73.6 27 3.3 38
13:15 1022 30.18 852 25.16 23.1 73.5 27 3.4 38.1
13:20 1022 30.18 852 25.16 23.7 74.6 25 2.7 36.8
13:25 1022 30.18 852 25.16 22.9 73.2 28 3.9 38.9
13:30 1022 30.18 852 25.16 23 73.3 27 3.1 37.6
13:35 1022 30.18 852 25.16 24.3 75.7 25 3 37.4
13:40 1022 30.18 851 25.13 24.4 75.9 27 4.4 39.9
13:45 1022 30.18 851 25.13 24.3 75.7 25 3.3 37.9
13:50 1022 30.18 851 25.13 24.2 75.5 26 3.6 38.4
13:55 1022 30.18 851 25.13 23.9 74.9 26 3.5 38.3
14:00 1022 30.18 851 25.13 24 75.1 26 3.5 38.2
14:05 1022 30.18 851 25.13 24 75.3 27 4.2 39.5
14:10 1022 30.18 851 25.13 24.2 75.6 26 4 39.1
14:15 1022 30.18 851 25.13 24.1 75.3 27 4 39.2
14:20 1022 30.18 851 25.13 24.5 76.1 25 3.4 38.1
14:25 1022 30.18 851 25.13 25 77 25 3.8 38.8
14:30 1022 30.18 851 25.13 25.2 77.4 25 3.9 39
14:35 1022 30.18 851 25.13 24.5 76.1 25 3.5 38.3
14:40 1022 30.18 851 25.13 24.1 75.4 26 3.6 38.4
14:45 1022 30.18 851 25.13 24.6 76.2 25 3.3 37.9
14:50 1022 30.18 851 25.13 24.4 75.9 25 3.4 38.1
14:55 1022 30.18 851 25.13 24.5 76 26 3.7 38.7
15:00 1022 30.18 851 25.13 24.6 76.2 24 3.2 37.7
15:05 1022 30.18 851 25.13 24.7 76.4 25 3.4 38.2
15:10 1022 30.18 851 25.13 25.4 77.8 23 3.2 37.7
15:15 1021 30.15 851 25.13 25.1 77.1 24 3.3 38
15:20 1021 30.15 851 25.13 24.8 76.6 25 3.8 38.8
15:25 1021 30.15 851 25.13 24.8 76.7 24 3 37.4
15:30 1021 30.15 851 25.13 24.5 76.1 25 3.7 38.6
15:35 1021 30.15 850 25.1 24.1 75.4 25 3.1 37.6
15:40 1021 30.15 850 25.1 25 76.9 24 3 37.3
15:45 1021 30.15 850 25.1 25.2 77.3 23 3.1 37.6
15:50 1021 30.15 850 25.1 25.7 78.2 23 3.2 37.8
15:55 1021 30.15 850 25.1 25.9 78.6 23 3.4 38
16:00 1021 30.15 850 25.1 26 78.8 21 2.4 36.4
16:05 1021 30.15 850 25.1 26.9 80.5 20 2.5 36.6
16:10 1021 30.15 850 25.1 26.2 79.1 22 2.9 37.1
16:15 1021 30.15 850 25.1 25.7 78.3 23 3.3 37.9
16:20 1021 30.15 850 25.1 25.3 77.5 23 2.9 37.2
16:25 1021 30.15 850 25.1 25.7 78.2 21 1.8 35.2
16:30 1021 30.15 850 25.1 26 78.7 21 2.5 36.5
16:35 1021 30.15 850 25.1 25.9 78.6 21 2 35.6
16:40 1021 30.15 850 25.1 26.2 79.2 20 1.8 35.2
16:45 1021 30.15 850 25.1 26.7 80 19 1.5 34.7
16:50 1021 30.15 850 25.1 27.1 80.8 19 1.9 35.4
16:55 1021 30.15 850 25.1 26.4 79.5 20 1.6 34.9
17:00 1021 30.15 850 25.1 26.7 80.1 21 2.7 36.8
17:05 1021 30.15 850 25.1 26.6 79.8 20 1.8 35.3
17:10 1021 30.15 850 25.1 26.5 79.7 20 2.3 36.1
17:15 1021 30.15 850 25.1 27.2 80.9 19 1.7 35
17:20 1021 30.15 850 25.1 27 80.6 19 1.5 34.7
17:25 1021 30.15 850 25.1 27.3 81.1 19 2 35.6
17:30 1021 30.15 850 25.1 27.2 80.9 19 2.1 35.7
17:35 1021 30.15 850 25.1 26.8 80.3 19 1.7 35.1
17:40 1021 30.15 850 25.1 26.3 79.4 20 2 35.5
17:45 1021 30.15 850 25.1 26.7 80.1 19 1.4 34.6
17:50 1021 30.15 850 25.1 26.7 80.1 21 2.9 37.3
17:55 1021 30.15 850 25.1 26.7 80.1 20 2.1 35.8
18:00 1021 30.15 850 25.1 26 78.7 21 2.3 36.1
18:05 1021 30.15 850 25.1 25.8 78.4 20 1.4 34.5
18:10 1021 30.15 850 25.1 26.1 79 20 1.8 35.2
18:15 1021 30.15 850 25.1 26.3 79.4 19 1.3 34.4
18:20 1021 30.15 850 25.1 26.1 79 21 2.5 36.4
18:25 1020 30.12 850 25.1 26.2 79.1 21 2.1 35.8
18:30 1020 30.12 850 25.1 25.4 77.7 21 1.5 34.7
18:35 1020 30.12 850 25.1 25.8 78.5 20 1.6 34.8
18:40 1020 30.12 850 25.1 25.8 78.5 20 1.7 35.1
18:45 1020 30.12 850 25.1 25.1 77.2 21 1.6 34.9
18:50 1020 30.12 850 25.1 25.5 78 20 1 33.8
18:55 1020 30.12 850 25.1 25.6 78.1 20 1 33.9
19:00 1020 30.12 850 25.1 25.9 78.6 19 1 33.9
19:05 1020 30.12 850 25.1 25.6 78.1 21 1.7 35
19:10 1020 30.12 850 25.1 25.3 77.5 20 1.2 34.1
19:15 1020 30.12 850 25.1 25.2 77.4 21 1.3 34.3
19:20 1020 30.12 850 25.1 25.7 78.3 19 0.6 33.1
19:25 1020 30.12 850 25.1 26.1 79 20 1.6 34.9
19:30 1020 30.12 850 25.1 25.3 77.6 21 1.5 34.7
19:35 1020 30.12 850 25.1 25.1 77.2 21 1.6 34.9
19:40 1020 30.12 850 25.1 25 77 22 2.1 35.8
19:45 1020 30.12 850 25.1 24.8 76.7 21 1.3 34.4
19:50 1020 30.12 850 25.1 24.7 76.5 21 1.2 34.2
19:55 1020 30.12 850 25.1 24.7 76.4 23 2.4 36.3
20:00 1020 30.12 850 25.1 24.6 76.2 24 2.8 37.1
20:05 1020 30.12 850 25.1 24.4 76 24 2.9 37.2
20:10 1020 30.12 850 25.1 24.3 75.7 22 1.6 34.8
20:15 1020 30.12 850 25.1 24.1 75.4 23 2.2 36
20:20 1020 30.12 850 25.1 24.1 75.3 24 2.6 36.8
20:25 1020 30.12 850 25.1 23.9 75.1 26 3.3 38
20:30 1020 30.12 850 25.1 23.8 74.8 25 3 37.5
20:35 1020 30.12 850 25.1 23.6 74.6 28 4.4 39.9
20:40 1020 30.12 850 25.1 23.6 74.4 28 4.4 39.8
20:45 1020 30.12 850 25.1 23.5 74.3 30 5.1 41.2
20:50 1020 30.12 850 25.1 23.4 74.2 31 5.5 41.8
20:55 1020 30.12 850 25.1 23.3 74 35 7 44.6
21:00 1021 30.15 850 25.1 23.2 73.7 32 5.6 42.2
21:05 1021 30.15 850 25.1 23 73.3 33 6.2 43.2
21:10 1021 30.15 850 25.1 22.5 72.4 38 7.7 45.9
21:15 1021 30.15 850 25.1 21.8 71.2 40 7.9 46.1
21:20 1021 30.15 850 25.1 21.1 69.9 42 8 46.4
21:25 1021 30.15 850 25.1 20.3 68.5 47 8.6 47.5
21:30 1021 30.15 850 25.1 19.7 67.4 45 7.5 45.6
21:35 1021 30.15 850 25.1 19.4 66.8 46 7.7 45.9
21:40 1021 30.15 850 25.1 19 66.2 47 7.7 45.8
21:45 1021 30.15 850 25.1 18.5 65.3 47 7.2 45
21:50 1021 30.15 850 25.1 18.1 64.6 48 7.1 44.8
21:55 1021 30.15 850 25.1 18 64.5 50 7.6 45.6
22:00 1021 30.15 851 25.13 18.1 64.6 48 7.2 45
22:05 1021 30.15 851 25.13 18.2 64.8 48 7.1 44.7
22:10 1021 30.15 851 25.13 18.1 64.5 47 6.8 44.3
22:15 1021 30.15 851 25.13 17.7 63.8 51 7.7 45.8
22:20 1021 30.15 851 25.13 17.4 63.4 45 5.5 42
22:25 1021 30.15 851 25.13 17.5 63.5 47 6.1 43
22:30 1021 30.15 851 25.13 17.9 64.3 43 5.4 41.7
22:35 1021 30.15 851 25.13 17.7 63.9 46 6.1 42.9
22:40 1022 30.18 851 25.13 17 62.6 51 6.9 44.4
22:45 1022 30.18 851 25.13 16.5 61.8 49 5.8 42.5
22:50 1022 30.18 851 25.13 16.5 61.7 50 6.1 43
22:55 1022 30.18 851 25.13 16.5 61.8 48 5.5 42
23:00 1022 30.18 851 25.13 16.5 61.8 48 5.5 41.9
23:05 1022 30.18 851 25.13 16.1 61.1 48 5.2 41.4
23:10 1022 30.18 851 25.13 16 60.7 48 5 41.1
23:15 1022 30.18 851 25.13 15.9 60.7 51 5.8 42.4
23:20 1022 30.18 851 25.13 15.7 60.3 49 5 41
23:25 1022 30.18 851 25.13 15.6 60 47 4.4 39.9
23:30 1022 30.18 851 25.13 15.7 60.2 45 3.8 38.8
23:35 1022 30.18 851 25.13 16 60.8 43 3.6 38.4
23:40 1022 30.18 851 25.13 16.2 61.1 43 3.7 38.7
23:45 1022 30.18 851 25.13 16.1 61 42 3.4 38.1
23:50 1022 30.18 851 25.13 16.4 61.4 44 4.2 39.6
23:55 1022 30.18 851 25.13 16.3 61.4 43 3.8 38.9
24:00 1022 30.18 851 25.13 16.4 61.5 44 4.1 39.4